Juneau Ultralightport Airpark

5LA0 · 路易斯安那州, 美国

罗盘
风向 的 风向 200° Juneau Ultralightport 18/36
风: 6 kt, 2 beaufort

6 kt

2 kt
改变
0 ft 1.000 2.000 3.000 4.000 5.000
Cloud Cloud
FEW 4.300
METAR KDTN 052253Z AUTO 20006KT 10SM FEW043 19/10 A3015 RMK AO2 SLP208 T01940100

METAR Juneau Ultralightport - 5LA0

Juneau Ultralightport是,美国中的小机场。 该机场有一条跑道: 18/36. 该领域的国际民航组织标志是5LA0.

这份报告是针对2023年2月5日 16:53, 当地时间在Shreveport Downtown Airport进行的。

机场观察

风向为200°,速度为6 kt。

可见度为10 mi。

有几云在4.300 ft的高度。 没有观察到天花板。

温度和风寒是19 °C。 露点为10 °C,相对湿度为56%。 海平面上的气压为30,15 inHg (QNH)。

白天

今天,太阳从07:06升起,在17:51降落。 这适用于Juneau Ultralightport,世界夏令时可能有所不同。 当地时间与世界标准时间之间的时差为-6 小时。 当前,没有夏令时有效。

公司介绍

我们没有关于这个机场的公司信息。

体会

到Vliegles.nl去找飞行课程,跳伞和其他飞行体验。 浏览页面,了解Juneau Ultralightport附近所有可用的活动。 你也可以使用搜索功能来寻找你所在地附近的特定飞行课程、跳伞或其他飞行体验。

跑道

Id 标题 侧风 逆风 侧风 %
18/36 180°-360° 2 kt 6 kt 34 %

逆风成分最大的方向会被突出显示,并用于横风计算。 这并不一定意味着这个方向在使用。

乌云

4.300 ft FEW 几云

温度 & 天气

温度 19,4 °C
露点 10,0 °C
相对湿度 56%
Kp-index 1 (0-9)

评论

AO2自动气象站,可确定降水类型
SLP208海平面压力为30,14 inHg (30,14 inHg)
T01940100温度为19,4 °C (66,9 °F),露点为10,0 °C (50,0 °F)

白天

日出
07:06 (13:10)
中午
12:28
日落
17:51

小工具

你想在你的网站上有一个关于Juneau Ultralightport的当前航空天气(METAR)的小部件吗?

显示HTML代码

我们和第三方通过cookies跟踪您在我们网站上的互联网行为。如果你继续,我们认为你同意我们的饼干政策